sensor_id;sensor_type;location;lat;lon;timestamp;pressure;altitude;pressure_sealevel;temperature;humidity
65553;BME280;72126;51.560;14.368;2023-08-21T00:06:06;100855.78;;;28.19;58.35
65553;BME280;72126;51.560;14.368;2023-08-21T00:08:31;100859.00;;;28.21;58.14
65553;BME280;72126;51.560;14.368;2023-08-21T00:20:07;100857.66;;;28.18;58.24
65553;BME280;72126;51.560;14.368;2023-08-21T00:22:32;100789.22;;;27.72;58.29
65553;BME280;72126;51.560;14.368;2023-08-21T00:24:58;100853.84;;;28.14;58.40
65553;BME280;72126;51.560;14.368;2023-08-21T00:31:21;100863.81;;;28.14;58.37
65553;BME280;72126;51.560;14.368;2023-08-21T01:02:34;100822.69;;;27.86;58.61
65553;BME280;72126;51.560;14.368;2023-08-21T01:04:59;100851.63;;;28.01;58.63
65553;BME280;72126;51.560;14.368;2023-08-21T01:13:19;100860.50;;;28.02;58.63
65553;BME280;72126;51.560;14.368;2023-08-21T01:17:24;100865.31;;;28.00;59.00
65553;BME280;72126;51.560;14.368;2023-08-21T01:19:51;100864.78;;;27.98;59.09
65553;BME280;72126;51.560;14.368;2023-08-21T01:33:05;100854.22;;;27.91;58.62
65553;BME280;72126;51.560;14.368;2023-08-21T01:43:49;100823.94;;;27.74;58.80
65553;BME280;72126;51.560;14.368;2023-08-21T01:46:15;100846.66;;;27.88;58.59
65553;BME280;72126;51.560;14.368;2023-08-21T01:48:40;100857.69;;;27.86;58.77
65553;BME280;72126;51.560;14.368;2023-08-21T01:58:59;100844.22;;;27.86;58.57
65553;BME280;72126;51.560;14.368;2023-08-21T02:19:38;100829.13;;;27.80;58.49
65553;BME280;72126;51.560;14.368;2023-08-21T02:55:22;100857.81;;;27.70;59.17
65553;BME280;72126;51.560;14.368;2023-08-21T03:01:36;100845.66;;;27.67;58.92
65553;BME280;72126;51.560;14.368;2023-08-21T03:30:53;100850.69;;;27.58;58.79
65553;BME280;72126;51.560;14.368;2023-08-21T03:33:19;100852.00;;;27.56;58.95
65553;BME280;72126;51.560;14.368;2023-08-21T03:43:18;100848.25;;;27.57;59.38
65553;BME280;72126;51.560;14.368;2023-08-21T03:51:43;100842.50;;;27.48;59.40
65553;BME280;72126;51.560;14.368;2023-08-21T03:57:14;100841.97;;;27.46;59.57
65553;BME280;72126;51.560;14.368;2023-08-21T04:23:04;100860.22;;;27.44;58.83
65553;BME280;72126;51.560;14.368;2023-08-21T04:25:30;100859.66;;;27.42;59.60
65553;BME280;72126;51.560;14.368;2023-08-21T04:34:56;100872.56;;;27.40;59.20
65553;BME280;72126;51.560;14.368;2023-08-21T04:45:47;100879.44;;;27.31;59.82
65553;BME280;72126;51.560;14.368;2023-08-21T04:50:17;100878.97;;;27.34;59.47
65553;BME280;72126;51.560;14.368;2023-08-21T05:16:41;100906.88;;;27.33;59.41
65553;BME280;72126;51.560;14.368;2023-08-21T05:19:06;100892.81;;;27.26;59.69
65553;BME280;72126;51.560;14.368;2023-08-21T05:21:33;100902.78;;;27.25;59.41
65553;BME280;72126;51.560;14.368;2023-08-21T05:29:18;100892.34;;;27.29;59.71
65553;BME280;72126;51.560;14.368;2023-08-21T05:31:43;100897.41;;;27.25;59.99
65553;BME280;72126;51.560;14.368;2023-08-21T05:34:09;100896.59;;;27.25;59.87
65553;BME280;72126;51.560;14.368;2023-08-21T05:36:34;100894.97;;;27.24;60.02
65553;BME280;72126;51.560;14.368;2023-08-21T05:43:08;100887.41;;;27.21;59.63
65553;BME280;72126;51.560;14.368;2023-08-21T05:49:34;100900.91;;;27.26;59.61
65553;BME280;72126;51.560;14.368;2023-08-21T05:52:00;100899.53;;;27.23;59.80
65553;BME280;72126;51.560;14.368;2023-08-21T05:54:25;100874.34;;;27.07;59.63
65553;BME280;72126;51.560;14.368;2023-08-21T05:56:51;100885.66;;;27.09;59.78
65553;BME280;72126;51.560;14.368;2023-08-21T06:08:25;100907.59;;;27.23;59.82
65553;BME280;72126;51.560;14.368;2023-08-21T06:10:51;100911.59;;;27.21;59.79
65553;BME280;72126;51.560;14.368;2023-08-21T06:13:16;100904.59;;;27.20;59.76
65553;BME280;72126;51.560;14.368;2023-08-21T06:23:40;100917.22;;;27.19;59.94
65553;BME280;72126;51.560;14.368;2023-08-21T06:26:05;100921.78;;;27.19;59.57
65553;BME280;72126;51.560;14.368;2023-08-21T06:28:31;100907.78;;;27.17;59.44
65553;BME280;72126;51.560;14.368;2023-08-21T06:30:57;100904.78;;;27.13;59.77
65553;BME280;72126;51.560;14.368;2023-08-21T06:33:22;100894.28;;;27.11;59.88
65553;BME280;72126;51.560;14.368;2023-08-21T06:35:47;100895.09;;;27.12;59.71
65553;BME280;72126;51.560;14.368;2023-08-21T06:42:15;100887.03;;;27.12;59.65
65553;BME280;72126;51.560;14.368;2023-08-21T06:44:40;100904.03;;;27.18;59.84
65553;BME280;72126;51.560;14.368;2023-08-21T06:47:06;100899.72;;;27.17;59.69
65553;BME280;72126;51.560;14.368;2023-08-21T06:49:31;100905.91;;;27.17;59.59
65553;BME280;72126;51.560;14.368;2023-08-21T06:51:57;100910.47;;;27.17;60.07
65553;BME280;72126;51.560;14.368;2023-08-21T06:54:22;100903.47;;;27.15;59.74
65553;BME280;72126;51.560;14.368;2023-08-21T07:02:43;100892.41;;;27.12;59.65
65553;BME280;72126;51.560;14.368;2023-08-21T07:09:11;100912.41;;;27.21;59.72
65553;BME280;72126;51.560;14.368;2023-08-21T07:11:36;100898.59;;;27.12;59.91
65553;BME280;72126;51.560;14.368;2023-08-21T07:14:02;100911.03;;;27.19;59.39
65553;BME280;72126;51.560;14.368;2023-08-21T07:16:27;100900.16;;;27.08;59.88
65553;BME280;72126;51.560;14.368;2023-08-21T07:20:57;100924.22;;;27.20;59.73
65553;BME280;72126;51.560;14.368;2023-08-21T07:23:23;100921.25;;;27.17;59.49
65553;BME280;72126;51.560;14.368;2023-08-21T07:25:48;100913.97;;;27.17;59.32
65553;BME280;72126;51.560;14.368;2023-08-21T07:32:10;100906.41;;;27.14;59.25
65553;BME280;72126;51.560;14.368;2023-08-21T07:34:36;100919.66;;;27.21;59.40
65553;BME280;72126;51.560;14.368;2023-08-21T07:37:01;100925.03;;;27.21;59.69
65553;BME280;72126;51.560;14.368;2023-08-21T07:41:39;100904.97;;;27.06;59.57
65553;BME280;72126;51.560;14.368;2023-08-21T07:44:04;100927.16;;;27.19;59.59
65553;BME280;72126;51.560;14.368;2023-08-21T07:46:30;100924.41;;;27.13;59.21
65553;BME280;72126;51.560;14.368;2023-08-21T07:54:59;100938.72;;;27.19;58.89
65553;BME280;72126;51.560;14.368;2023-08-21T07:57:24;100940.59;;;27.19;58.70
65553;BME280;72126;51.560;14.368;2023-08-21T07:59:50;100934.69;;;27.17;59.10
65553;BME280;72126;51.560;14.368;2023-08-21T08:02:15;100919.22;;;27.07;59.22
65553;BME280;72126;51.560;14.368;2023-08-21T08:04:40;100943.56;;;27.17;59.12
65553;BME280;72126;51.560;14.368;2023-08-21T08:11:25;100935.16;;;27.13;58.60
65553;BME280;72126;51.560;14.368;2023-08-21T08:17:27;100933.84;;;27.16;58.87
65553;BME280;72126;51.560;14.368;2023-08-21T08:37:53;100942.84;;;27.27;58.06
65553;BME280;72126;51.560;14.368;2023-08-21T08:42:18;100929.41;;;27.27;58.01
65553;BME280;72126;51.560;14.368;2023-08-21T08:48:36;100929.16;;;27.28;58.55
65553;BME280;72126;51.560;14.368;2023-08-21T08:51:02;100932.66;;;27.29;58.34
65553;BME280;72126;51.560;14.368;2023-08-21T08:55:25;100929.72;;;27.30;58.13
65553;BME280;72126;51.560;14.368;2023-08-21T08:57:51;100924.03;;;27.27;58.49
65553;BME280;72126;51.560;14.368;2023-08-21T09:00:17;100924.59;;;27.29;58.28
65553;BME280;72126;51.560;14.368;2023-08-21T09:02:42;100925.66;;;27.28;58.60
65553;BME280;72126;51.560;14.368;2023-08-21T09:09:02;100916.81;;;27.32;58.27
65553;BME280;72126;51.560;14.368;2023-08-21T09:11:28;100922.47;;;27.31;58.01
65553;BME280;72126;51.560;14.368;2023-08-21T09:13:54;100907.34;;;27.25;58.75
65553;BME280;72126;51.560;14.368;2023-08-21T09:16:21;100920.03;;;27.29;58.15
65553;BME280;72126;51.560;14.368;2023-08-21T09:18:48;100911.97;;;27.29;58.02
65553;BME280;72126;51.560;14.368;2023-08-21T09:21:16;100903.22;;;27.17;58.52
65553;BME280;72126;51.560;14.368;2023-08-21T09:23:41;100917.59;;;27.28;58.50
65553;BME280;72126;51.560;14.368;2023-08-21T09:30:15;100911.16;;;27.29;58.39
65553;BME280;72126;51.560;14.368;2023-08-21T09:34:50;100853.69;;;26.91;58.08
65553;BME280;72126;51.560;14.368;2023-08-21T09:37:16;100909.34;;;27.34;58.44
65553;BME280;72126;51.560;14.368;2023-08-21T09:39:42;100897.66;;;27.24;58.20
65553;BME280;72126;51.560;14.368;2023-08-21T09:42:08;100903.38;;;27.32;58.59
65553;BME280;72126;51.560;14.368;2023-08-21T09:44:37;100893.63;;;27.26;58.66
65553;BME280;72126;51.560;14.368;2023-08-21T09:54:53;100918.28;;;27.40;57.93
65553;BME280;72126;51.560;14.368;2023-08-21T10:15:09;100898.44;;;27.46;57.91
65553;BME280;72126;51.560;14.368;2023-08-21T10:17:35;100903.00;;;27.46;58.24
65553;BME280;72126;51.560;14.368;2023-08-21T10:20:02;100895.16;;;27.44;57.84
65553;BME280;72126;51.560;14.368;2023-08-21T10:22:39;100894.13;;;27.45;58.35
65553;BME280;72126;51.560;14.368;2023-08-21T10:25:20;100899.50;;;27.45;58.06
65553;BME280;72126;51.560;14.368;2023-08-21T10:27:46;100877.06;;;27.34;58.42
65553;BME280;72126;51.560;14.368;2023-08-21T10:32:52;100894.13;;;27.45;58.33
65553;BME280;72126;51.560;14.368;2023-08-21T10:35:35;100900.88;;;27.48;58.03
65553;BME280;72126;51.560;14.368;2023-08-21T10:41:30;100904.09;;;27.50;58.00
65553;BME280;72126;51.560;14.368;2023-08-21T10:43:56;100908.19;;;27.52;58.28
65553;BME280;72126;51.560;14.368;2023-08-21T10:46:21;100892.09;;;27.57;57.58
65553;BME280;72126;51.560;14.368;2023-08-21T10:52:55;100907.53;;;27.94;57.44
65553;BME280;72126;51.560;14.368;2023-08-21T10:55:20;100883.06;;;27.96;56.61
65553;BME280;72126;51.560;14.368;2023-08-21T10:57:47;100903.16;;;28.20;56.86
65553;BME280;72126;51.560;14.368;2023-08-21T11:00:14;100893.78;;;28.28;56.71
65553;BME280;72126;51.560;14.368;2023-08-21T11:02:42;100888.25;;;28.39;56.08
65553;BME280;72126;51.560;14.368;2023-08-21T11:05:08;100895.63;;;28.54;56.34
65553;BME280;72126;51.560;14.368;2023-08-21T11:07:37;100899.44;;;28.63;56.18
65553;BME280;72126;51.560;14.368;2023-08-21T11:10:04;100896.25;;;28.71;56.14
65553;BME280;72126;51.560;14.368;2023-08-21T11:12:29;100901.16;;;28.80;55.96
65553;BME280;72126;51.560;14.368;2023-08-21T11:14:54;100896.56;;;28.80;55.62
65553;BME280;72126;51.560;14.368;2023-08-21T11:17:20;100890.13;;;28.86;56.11
65553;BME280;72126;51.560;14.368;2023-08-21T11:19:46;100888.78;;;28.89;56.02
65553;BME280;72126;51.560;14.368;2023-08-21T11:22:11;100827.78;;;28.62;55.70
65553;BME280;72126;51.560;14.368;2023-08-21T11:24:42;100893.50;;;29.09;55.72
65553;BME280;72126;51.560;14.368;2023-08-21T11:27:16;100876.22;;;29.05;55.57
65553;BME280;72126;51.560;14.368;2023-08-21T11:29:43;100897.03;;;29.19;55.64
65553;BME280;72126;51.560;14.368;2023-08-21T11:32:13;100900.25;;;29.21;55.87
65553;BME280;72126;51.560;14.368;2023-08-21T11:34:38;100873.28;;;29.21;55.56
65553;BME280;72126;51.560;14.368;2023-08-21T11:37:04;100878.44;;;29.28;55.75
65553;BME280;72126;51.560;14.368;2023-08-21T11:44:32;100868.19;;;29.25;55.58
65553;BME280;72126;51.560;14.368;2023-08-21T11:46:58;100893.84;;;29.38;55.53
65553;BME280;72126;51.560;14.368;2023-08-21T11:49:23;100890.88;;;29.39;55.37
65553;BME280;72126;51.560;14.368;2023-08-21T11:51:49;100893.03;;;29.42;55.66
65553;BME280;72126;51.560;14.368;2023-08-21T11:54:17;100882.25;;;29.42;55.51
65553;BME280;72126;51.560;14.368;2023-08-21T11:56:42;100881.97;;;29.44;55.65
65553;BME280;72126;51.560;14.368;2023-08-21T11:59:08;100883.59;;;29.45;56.05
65553;BME280;72126;51.560;14.368;2023-08-21T12:01:33;100890.59;;;29.46;55.88
65553;BME280;72126;51.560;14.368;2023-08-21T12:03:59;100829.84;;;29.08;55.71
65553;BME280;72126;51.560;14.368;2023-08-21T12:06:25;100835.50;;;29.06;55.65
65553;BME280;72126;51.560;14.368;2023-08-21T12:08:51;100892.25;;;29.47;55.72
65553;BME280;72126;51.560;14.368;2023-08-21T12:11:16;100891.69;;;29.50;55.57
65553;BME280;72126;51.560;14.368;2023-08-21T12:13:41;100889.00;;;29.50;55.58
65553;BME280;72126;51.560;14.368;2023-08-21T12:16:07;100894.41;;;29.50;55.80
65553;BME280;72126;51.560;14.368;2023-08-21T12:18:34;100890.63;;;29.51;55.72
65553;BME280;72126;51.560;14.368;2023-08-21T12:20:59;100892.50;;;29.50;55.88
65553;BME280;72126;51.560;14.368;2023-08-21T12:23:24;100894.94;;;29.47;55.80
65553;BME280;72126;51.560;14.368;2023-08-21T12:25:50;100878.47;;;29.43;56.01
65553;BME280;72126;51.560;14.368;2023-08-21T12:28:15;100885.50;;;29.49;55.63
65553;BME280;72126;51.560;14.368;2023-08-21T12:30:41;100889.00;;;29.50;55.92
65553;BME280;72126;51.560;14.368;2023-08-21T12:33:06;100884.69;;;29.44;56.27
65553;BME280;72126;51.560;14.368;2023-08-21T12:35:34;100891.69;;;29.50;55.88
65553;BME280;72126;51.560;14.368;2023-08-21T12:38:00;100893.31;;;29.51;55.95
65553;BME280;72126;51.560;14.368;2023-08-21T12:43:04;100897.91;;;29.50;55.92
65553;BME280;72126;51.560;14.368;2023-08-21T12:45:30;100889.28;;;29.48;55.90
65553;BME280;72126;51.560;14.368;2023-08-21T12:47:55;100898.72;;;29.51;55.95
65553;BME280;72126;51.560;14.368;2023-08-21T12:50:21;100881.97;;;29.44;55.93
65553;BME280;72126;51.560;14.368;2023-08-21T12:52:49;100880.66;;;29.46;56.01
65553;BME280;72126;51.560;14.368;2023-08-21T12:55:14;100879.81;;;29.46;56.20
65553;BME280;72126;51.560;14.368;2023-08-21T12:57:40;100866.88;;;29.43;55.94
65553;BME280;72126;51.560;14.368;2023-08-21T13:00:07;100880.41;;;29.53;55.91
65553;BME280;72126;51.560;14.368;2023-08-21T13:02:33;100861.78;;;29.46;55.91
65553;BME280;72126;51.560;14.368;2023-08-21T13:04:58;100867.72;;;29.54;55.80
65553;BME280;72126;51.560;14.368;2023-08-21T13:07:24;100879.34;;;29.54;55.68
65553;BME280;72126;51.560;14.368;2023-08-21T13:09:49;100858.78;;;29.48;56.03
65553;BME280;72126;51.560;14.368;2023-08-21T13:12:14;100877.44;;;29.55;56.16
65553;BME280;72126;51.560;14.368;2023-08-21T13:14:40;100853.91;;;29.40;55.94
65553;BME280;72126;51.560;14.368;2023-08-21T13:17:06;100866.88;;;29.48;55.95
65553;BME280;72126;51.560;14.368;2023-08-21T13:19:31;100869.84;;;29.51;56.14
65553;BME280;72126;51.560;14.368;2023-08-21T13:21:57;100876.38;;;29.56;56.11
65553;BME280;72126;51.560;14.368;2023-08-21T13:24:22;100882.84;;;29.55;56.10
65553;BME280;72126;51.560;14.368;2023-08-21T13:26:48;100844.47;;;29.32;55.81
65553;BME280;72126;51.560;14.368;2023-08-21T13:29:13;100854.47;;;29.42;56.04
65553;BME280;72126;51.560;14.368;2023-08-21T13:31:38;100869.34;;;29.55;56.16
65553;BME280;72126;51.560;14.368;2023-08-21T13:34:05;100869.03;;;29.51;56.11
65553;BME280;72126;51.560;14.368;2023-08-21T13:36:30;100869.34;;;29.55;55.92
65553;BME280;72126;51.560;14.368;2023-08-21T13:38:56;100846.09;;;29.43;55.93
65553;BME280;72126;51.560;14.368;2023-08-21T13:41:21;100869.06;;;29.56;56.30
65553;BME280;72126;51.560;14.368;2023-08-21T13:43:46;100832.59;;;29.28;55.96
65553;BME280;72126;51.560;14.368;2023-08-21T13:46:12;100841.50;;;29.44;56.09
65553;BME280;72126;51.560;14.368;2023-08-21T13:48:37;100866.38;;;29.56;55.97
65553;BME280;72126;51.560;14.368;2023-08-21T13:51:03;100867.19;;;29.57;55.98
65553;BME280;72126;51.560;14.368;2023-08-21T13:53:29;100871.78;;;29.56;56.01
65553;BME280;72126;51.560;14.368;2023-08-21T13:55:54;100864.50;;;29.57;56.10
65553;BME280;72126;51.560;14.368;2023-08-21T13:58:20;100862.06;;;29.55;56.16
65553;BME280;72126;51.560;14.368;2023-08-21T14:00:45;100873.94;;;29.54;56.15
65553;BME280;72126;51.560;14.368;2023-08-21T14:03:11;100853.13;;;29.44;56.19
65553;BME280;72126;51.560;14.368;2023-08-21T14:05:36;100879.63;;;29.53;56.03
65553;BME280;72126;51.560;14.368;2023-08-21T14:08:03;100853.13;;;29.44;56.41
65553;BME280;72126;51.560;14.368;2023-08-21T14:10:29;100863.63;;;29.51;56.25
65553;BME280;72126;51.560;14.368;2023-08-21T14:12:54;100849.59;;;29.44;56.11
65553;BME280;72126;51.560;14.368;2023-08-21T14:15:20;100864.19;;;29.48;56.22
65553;BME280;72126;51.560;14.368;2023-08-21T14:17:45;100857.72;;;29.49;56.26
65553;BME280;72126;51.560;14.368;2023-08-21T14:20:11;100846.91;;;29.44;56.11
65553;BME280;72126;51.560;14.368;2023-08-21T14:22:36;100815.59;;;29.22;56.20
65553;BME280;72126;51.560;14.368;2023-08-21T14:25:02;100851.22;;;29.50;56.21
65553;BME280;72126;51.560;14.368;2023-08-21T14:27:28;100848.53;;;29.50;56.33
65553;BME280;72126;51.560;14.368;2023-08-21T14:29:53;100844.75;;;29.51;56.11
65553;BME280;72126;51.560;14.368;2023-08-21T14:34:26;100839.34;;;29.51;56.27
65553;BME280;72126;51.560;14.368;2023-08-21T14:36:52;100843.69;;;29.52;56.04
65553;BME280;72126;51.560;14.368;2023-08-21T14:39:17;100743.28;;;28.94;56.04
65553;BME280;72126;51.560;14.368;2023-08-21T14:41:43;100843.94;;;29.50;56.17
65553;BME280;72126;51.560;14.368;2023-08-21T14:44:09;100842.66;;;29.53;56.19
65553;BME280;72126;51.560;14.368;2023-08-21T14:46:34;100833.44;;;29.49;56.19
65553;BME280;72126;51.560;14.368;2023-08-21T14:49:00;100833.47;;;29.54;56.21
65553;BME280;72126;51.560;14.368;2023-08-21T14:51:29;100841.56;;;29.54;56.04
65553;BME280;72126;51.560;14.368;2023-08-21T14:54:44;100823.72;;;29.48;56.29
65553;BME280;72126;51.560;14.368;2023-08-21T14:57:09;100836.97;;;29.55;56.11
65553;BME280;72126;51.560;14.368;2023-08-21T14:59:35;100815.63;;;29.43;56.10
65553;BME280;72126;51.560;14.368;2023-08-21T15:02:00;100770.28;;;29.14;56.29
65553;BME280;72126;51.560;14.368;2023-08-21T15:04:27;100815.34;;;29.49;56.19
65553;BME280;72126;51.560;14.368;2023-08-21T15:06:53;100824.28;;;29.55;56.00
65553;BME280;72126;51.560;14.368;2023-08-21T15:09:19;100827.00;;;29.55;56.15
65553;BME280;72126;51.560;14.368;2023-08-21T15:11:45;100815.06;;;29.51;56.05
65553;BME280;72126;51.560;14.368;2023-08-21T15:14:11;100823.47;;;29.55;56.28
65553;BME280;72126;51.560;14.368;2023-08-21T15:16:36;100827.25;;;29.54;56.09
65553;BME280;72126;51.560;14.368;2023-08-21T15:19:02;100801.59;;;29.36;55.97
65553;BME280;72126;51.560;14.368;2023-08-21T15:21:27;100828.06;;;29.54;56.21
65553;BME280;72126;51.560;14.368;2023-08-21T15:23:53;100823.72;;;29.48;56.19
65553;BME280;72126;51.560;14.368;2023-08-21T15:28:54;100831.06;;;29.53;55.87
65553;BME280;72126;51.560;14.368;2023-08-21T15:31:19;100812.38;;;29.36;56.09
65553;BME280;72126;51.560;14.368;2023-08-21T15:33:45;100812.91;;;29.38;56.19
65553;BME280;72126;51.560;14.368;2023-08-21T15:36:10;100762.44;;;29.03;55.93
65553;BME280;72126;51.560;14.368;2023-08-21T15:38:36;100826.69;;;29.51;56.07
65553;BME280;72126;51.560;14.368;2023-08-21T15:41:01;100831.25;;;29.51;56.04
65553;BME280;72126;51.560;14.368;2023-08-21T15:43:26;100831.25;;;29.51;56.13
65553;BME280;72126;51.560;14.368;2023-08-21T15:45:52;100822.34;;;29.50;56.29
65553;BME280;72126;51.560;14.368;2023-08-21T15:48:21;100814.81;;;29.42;56.25
65553;BME280;72126;51.560;14.368;2023-08-21T15:51:31;100826.16;;;29.49;56.06
65553;BME280;72126;51.560;14.368;2023-08-21T15:53:57;100819.94;;;29.49;56.12
65553;BME280;72126;51.560;14.368;2023-08-21T15:56:22;100806.19;;;29.35;56.24
65553;BME280;72126;51.560;14.368;2023-08-21T15:58:47;100820.22;;;29.47;56.16
65553;BME280;72126;51.560;14.368;2023-08-21T16:01:13;100800.75;;;29.40;55.99
65553;BME280;72126;51.560;14.368;2023-08-21T16:05:48;100803.75;;;29.49;56.18
65553;BME280;72126;51.560;14.368;2023-08-21T16:08:16;100802.66;;;29.45;56.05
65553;BME280;72126;51.560;14.368;2023-08-21T16:12:36;100809.66;;;29.46;56.01
65553;BME280;72126;51.560;14.368;2023-08-21T16:15:01;100805.09;;;29.41;56.08
65553;BME280;72126;51.560;14.368;2023-08-21T16:17:27;100808.06;;;29.45;56.12
65553;BME280;72126;51.560;14.368;2023-08-21T16:21:59;100813.47;;;29.45;56.21
65553;BME280;72126;51.560;14.368;2023-08-21T16:24:25;100811.31;;;29.42;56.02
65553;BME280;72126;51.560;14.368;2023-08-21T16:26:52;100806.72;;;29.37;56.04
65553;BME280;72126;51.560;14.368;2023-08-21T16:29:17;100814.25;;;29.40;56.05
65553;BME280;72126;51.560;14.368;2023-08-21T16:31:43;100808.84;;;29.40;56.06
65553;BME280;72126;51.560;14.368;2023-08-21T16:36:13;100800.78;;;29.35;55.92
65553;BME280;72126;51.560;14.368;2023-08-21T16:42:41;100803.75;;;29.39;55.88
65553;BME280;72126;51.560;14.368;2023-08-21T16:45:07;100805.91;;;29.37;56.07
65553;BME280;72126;51.560;14.368;2023-08-21T16:49:41;100794.81;;;29.28;56.11
65553;BME280;72126;51.560;14.368;2023-08-21T16:52:07;100788.34;;;29.19;56.03
65553;BME280;72126;51.560;14.368;2023-08-21T16:54:32;100785.41;;;29.25;56.23
65553;BME280;72126;51.560;14.368;2023-08-21T16:56:58;100797.25;;;29.35;56.10
65553;BME280;72126;51.560;14.368;2023-08-21T16:59:23;100801.03;;;29.34;56.23
65553;BME280;72126;51.560;14.368;2023-08-21T17:01:48;100799.41;;;29.33;56.29
65553;BME280;72126;51.560;14.368;2023-08-21T17:08:06;100801.03;;;29.34;56.25
65553;BME280;72126;51.560;14.368;2023-08-21T17:10:32;100798.31;;;29.29;56.34
65553;BME280;72126;51.560;14.368;2023-08-21T17:15:00;100793.50;;;29.31;56.36
65553;BME280;72126;51.560;14.368;2023-08-21T17:17:25;100776.78;;;29.18;56.46
65553;BME280;72126;51.560;14.368;2023-08-21T17:19:51;100796.44;;;29.29;56.37
65553;BME280;72126;51.560;14.368;2023-08-21T17:22:16;100767.56;;;29.09;56.53
65553;BME280;72126;51.560;14.368;2023-08-21T17:24:47;100786.47;;;29.24;56.40
65553;BME280;72126;51.560;14.368;2023-08-21T17:27:12;100791.59;;;29.26;56.49
65553;BME280;72126;51.560;14.368;2023-08-21T17:29:37;100778.91;;;29.16;56.59
65553;BME280;72126;51.560;14.368;2023-08-21T17:32:10;100781.09;;;29.24;56.31
65553;BME280;72126;51.560;14.368;2023-08-21T17:34:35;100790.50;;;29.22;56.37
65553;BME280;72126;51.560;14.368;2023-08-21T17:37:01;100762.19;;;29.09;56.48
65553;BME280;72126;51.560;14.368;2023-08-21T17:39:26;100765.41;;;29.11;56.64
65553;BME280;72126;51.560;14.368;2023-08-21T17:43:47;100782.69;;;29.20;56.71
65553;BME280;72126;51.560;14.368;2023-08-21T17:46:12;100787.28;;;29.20;56.73
65553;BME280;72126;51.560;14.368;2023-08-21T17:48:37;100789.69;;;29.16;56.69
65553;BME280;72126;51.560;14.368;2023-08-21T17:51:03;100787.53;;;29.13;56.51
65553;BME280;72126;51.560;14.368;2023-08-21T17:53:28;100778.34;;;29.09;56.61
65553;BME280;72126;51.560;14.368;2023-08-21T17:55:53;100753.22;;;28.88;56.39
65553;BME280;72126;51.560;14.368;2023-08-21T17:58:19;100786.44;;;29.09;56.17
65553;BME280;72126;51.560;14.368;2023-08-21T18:00:45;100775.91;;;28.97;56.33
65553;BME280;72126;51.560;14.368;2023-08-21T18:03:10;100783.72;;;28.99;55.89
65553;BME280;72126;51.560;14.368;2023-08-21T18:05:36;100798.56;;;29.02;56.00
65553;BME280;72126;51.560;14.368;2023-08-21T18:08:01;100788.81;;;28.95;55.60
65553;BME280;72126;51.560;14.368;2023-08-21T18:10:27;100759.91;;;28.76;55.73
65553;BME280;72126;51.560;14.368;2023-08-21T18:12:52;100782.06;;;28.88;55.51
65553;BME280;72126;51.560;14.368;2023-08-21T18:15:18;100789.63;;;28.91;55.42
65553;BME280;72126;51.560;14.368;2023-08-21T18:17:44;100790.41;;;28.86;55.40
65553;BME280;72126;51.560;14.368;2023-08-21T18:20:10;100793.91;;;28.87;55.33
65553;BME280;72126;51.560;14.368;2023-08-21T18:22:35;100793.38;;;28.85;55.41
65553;BME280;72126;51.560;14.368;2023-08-21T18:25:01;100796.31;;;28.83;54.79
65553;BME280;72126;51.560;14.368;2023-08-21T18:30:47;100781.19;;;28.72;55.19
65553;BME280;72126;51.560;14.368;2023-08-21T18:33:12;100806.84;;;28.80;54.73
65553;BME280;72126;51.560;14.368;2023-08-21T18:35:37;100798.19;;;28.78;55.01
65553;BME280;72126;51.560;14.368;2023-08-21T18:40:12;100814.63;;;28.76;54.54
65553;BME280;72126;51.560;14.368;2023-08-21T18:42:37;100821.09;;;28.75;54.78
65553;BME280;72126;51.560;14.368;2023-08-21T18:53:16;100832.13;;;28.68;55.04
65553;BME280;72126;51.560;14.368;2023-08-21T19:02:14;100849.09;;;28.69;54.86
65553;BME280;72126;51.560;14.368;2023-08-21T19:04:39;100826.91;;;28.52;54.89
65553;BME280;72126;51.560;14.368;2023-08-21T19:11:41;100830.72;;;28.61;54.50
65553;BME280;72126;51.560;14.368;2023-08-21T19:16:15;100834.22;;;28.61;54.72
65553;BME280;72126;51.560;14.368;2023-08-21T19:18:41;100827.97;;;28.51;54.98
65553;BME280;72126;51.560;14.368;2023-08-21T19:21:06;100838.25;;;28.59;55.24
65553;BME280;72126;51.560;14.368;2023-08-21T19:23:31;100837.72;;;28.57;55.05
65553;BME280;72126;51.560;14.368;2023-08-21T19:25:57;100836.06;;;28.56;54.90
65553;BME280;72126;51.560;14.368;2023-08-21T19:28:22;100812.00;;;28.34;54.83
65553;BME280;72126;51.560;14.368;2023-08-21T19:36:17;100833.38;;;28.56;55.41
65553;BME280;72126;51.560;14.368;2023-08-21T19:50:07;100825.50;;;28.44;55.20
65553;BME280;72126;51.560;14.368;2023-08-21T19:52:32;100827.16;;;28.50;55.41
65553;BME280;72126;51.560;14.368;2023-08-21T19:54:57;100829.31;;;28.48;55.64
65553;BME280;72126;51.560;14.368;2023-08-21T19:57:23;100829.59;;;28.46;55.48
65553;BME280;72126;51.560;14.368;2023-08-21T20:03:48;100834.97;;;28.46;55.41
65553;BME280;72126;51.560;14.368;2023-08-21T20:08:05;100833.34;;;28.45;55.38
65553;BME280;72126;51.560;14.368;2023-08-21T20:10:30;100830.91;;;28.44;55.30
65553;BME280;72126;51.560;14.368;2023-08-21T20:12:56;100827.66;;;28.42;55.60
65553;BME280;72126;51.560;14.368;2023-08-21T20:15:22;100837.63;;;28.41;56.03
65553;BME280;72126;51.560;14.368;2023-08-21T20:22:09;100831.44;;;28.41;55.73
65553;BME280;72126;51.560;14.368;2023-08-21T20:24:35;100840.31;;;28.41;55.94
65553;BME280;72126;51.560;14.368;2023-08-21T20:32:42;100847.59;;;28.41;55.65